Time;durP1;ratioP1;P1;durP2;ratioP2;P2;SDS_P1;SDS_P2;PMS_P1;PMS_P2;Temp;Humidity;BMP_temperature;BMP_pressure;BME280_temperature;BME280_humidity;BME280_pressure;Samples;Min_cycle;Max_cycle;Signal;HPM_P1;HPM_P2
2022/02/15 00:00:55;;;;;;;6.90;3.30;;;;;;;9.09;100.00;96906.13;4955668;29;20075;-78
2022/02/15 00:03:23;;;;;;;10.15;3.25;;;;;;;9.16;100.00;96911.03;4954361;29;20105;-78
2022/02/15 00:05:50;;;;;;;6.75;3.13;;;;;;;9.08;100.00;96906.44;4957230;28;20055;-78
2022/02/15 00:08:17;;;;;;;8.43;3.45;;;;;;;9.04;100.00;96919.00;4957077;28;20078;-78
2022/02/15 00:10:47;;;;;;;8.70;3.50;;;;;;;8.99;100.00;96914.56;4955912;28;20051;-79
2022/02/15 00:13:14;;;;;;;8.93;3.30;;;;;;;9.02;100.00;96918.53;4955749;28;20055;-80
2022/02/15 00:15:43;;;;;;;9.10;3.30;;;;;;;9.05;100.00;96913.28;4955593;29;20512;-79
2022/02/15 00:18:11;;;;;;;8.48;3.10;;;;;;;9.09;100.00;96918.81;4955564;28;20118;-79
2022/02/15 00:20:38;;;;;;;6.28;3.03;;;;;;;9.00;100.00;96915.34;4959962;28;20059;-80
2022/02/15 00:23:05;;;;;;;7.13;3.25;;;;;;;8.93;100.00;96917.75;4962656;28;20048;-80
2022/02/15 00:25:31;;;;;;;7.90;3.15;;;;;;;8.90;100.00;96902.22;4957123;28;20118;-78
2022/02/15 00:27:59;;;;;;;8.63;3.15;;;;;;;9.06;100.00;96914.09;4955809;28;20542;-78
2022/02/15 00:30:26;;;;;;;10.23;3.28;;;;;;;9.08;100.00;96915.34;4951275;28;20094;-78
2022/02/15 00:32:53;;;;;;;7.72;3.20;;;;;;;9.07;100.00;96912.94;4953439;28;20093;-79
2022/02/15 00:35:19;;;;;;;9.55;3.45;;;;;;;9.01;100.00;96919.63;4957756;28;20051;-78
2022/02/15 00:37:46;;;;;;;5.75;3.10;;;;;;;9.15;100.00;96922.94;4958508;28;20051;-80
2022/02/15 00:40:13;;;;;;;7.90;3.38;;;;;;;8.99;100.00;96924.56;4964159;29;20249;-78
2022/02/15 00:42:40;;;;;;;10.25;3.35;;;;;;;9.13;100.00;96931.38;4954876;28;20077;-79
2022/02/15 00:45:08;;;;;;;10.80;3.47;;;;;;;9.04;100.00;96922.47;4956011;28;20055;-80
2022/02/15 00:47:37;;;;;;;8.60;3.15;;;;;;;9.09;100.00;96924.22;4957370;28;20055;-79
2022/02/15 00:50:05;;;;;;;7.63;3.20;;;;;;;9.05;100.00;96915.19;4956961;28;20055;-78
2022/02/15 00:52:34;;;;;;;7.50;3.25;;;;;;;9.16;100.00;96916.44;4957040;28;20055;-78
2022/02/15 00:55:01;;;;;;;4.45;2.80;;;;;;;9.14;100.00;96932.13;4956814;29;20039;-79
2022/02/15 00:57:27;;;;;;;7.32;3.08;;;;;;;9.18;100.00;96928.50;4953544;29;20055;-79
2022/02/15 00:59:54;;;;;;;9.05;3.13;;;;;;;9.16;100.00;96919.91;4953692;29;20059;-78
2022/02/15 01:02:20;;;;;;;7.07;3.13;;;;;;;9.24;100.00;96926.38;4954641;28;20126;-78
2022/02/15 01:04:47;;;;;;;7.43;3.30;;;;;;;9.16;100.00;96914.50;4957300;28;20514;-78
2022/02/15 01:07:13;;;;;;;6.35;2.88;;;;;;;9.23;100.00;96919.41;4955094;29;20155;-79
2022/02/15 01:09:40;;;;;;;8.40;3.47;;;;;;;9.20;100.00;96928.16;4953504;28;20487;-79
2022/02/15 01:12:08;;;;;;;9.07;3.40;;;;;;;9.31;100.00;96921.28;4954236;28;20058;-79
2022/02/15 01:14:34;;;;;;;6.13;2.88;;;;;;;9.23;100.00;96925.63;4952392;28;20063;-79
2022/02/15 01:17:01;;;;;;;9.68;3.25;;;;;;;9.21;100.00;96924.34;4953420;28;20055;-78
2022/02/15 01:19:29;;;;;;;6.63;2.65;;;;;;;9.17;100.00;96918.78;4953170;28;20079;-79
2022/02/15 01:21:55;;;;;;;11.20;3.30;;;;;;;9.20;100.00;96920.06;4953549;28;20114;-79
2022/02/15 01:24:22;;;;;;;6.75;3.15;;;;;;;9.03;100.00;96915.53;4954442;28;20493;-78
2022/02/15 01:26:49;;;;;;;14.15;3.50;;;;;;;9.08;100.00;96909.94;4955518;28;20460;-79
2022/02/15 01:29:16;;;;;;;11.05;3.30;;;;;;;9.01;100.00;96919.63;4955021;28;20055;-78
2022/02/15 01:31:42;;;;;;;7.20;3.03;;;;;;;8.91;100.00;96911.88;4957373;28;20118;-79
2022/02/15 01:34:09;;;;;;;10.85;3.67;;;;;;;8.89;100.00;96920.31;4958673;28;20043;-79
2022/02/15 01:36:35;;;;;;;10.20;3.22;;;;;;;8.92;100.00;96913.47;4959691;28;20051;-78
2022/02/15 01:39:02;;;;;;;6.38;3.20;;;;;;;8.99;100.00;96909.16;4957099;29;20086;-77
2022/02/15 01:41:29;;;;;;;10.77;3.20;;;;;;;9.04;100.00;96913.59;4970870;28;20039;-79
2022/02/15 01:43:55;;;;;;;5.95;3.20;;;;;;;9.08;100.00;96911.84;4977260;28;20071;-80
2022/02/15 01:46:22;;;;;;;10.20;3.65;;;;;;;9.02;100.00;96905.03;4977231;28;20089;-78
2022/02/15 01:48:48;;;;;;;7.70;3.50;;;;;;;8.76;100.00;96881.59;4977868;28;20047;-78
2022/02/15 01:51:15;;;;;;;5.85;3.03;;;;;;;9.02;100.00;96913.13;4977904;28;20043;-80
2022/02/15 01:53:42;;;;;;;7.53;3.20;;;;;;;8.96;100.00;96920.59;4975430;28;20110;-79
2022/02/15 01:56:12;;;;;;;6.50;3.22;;;;;;;9.00;100.00;96918.84;4976199;28;20051;-80
2022/02/15 01:58:40;;;;;;;10.05;3.40;;;;;;;9.00;100.00;96915.34;4977458;28;20051;-79
2022/02/15 02:01:06;;;;;;;9.43;3.60;;;;;;;8.93;100.00;96923.16;4973839;28;20054;-78
2022/02/15 02:03:33;;;;;;;8.30;3.38;;;;;;;8.99;100.00;96925.34;4974745;28;20051;-77
2022/02/15 02:06:00;;;;;;;7.25;3.33;;;;;;;8.78;100.00;96921.75;4973361;28;20455;-80
2022/02/15 02:08:31;;;;;;;11.75;4.07;;;;;;;8.85;100.00;96934.78;4973562;28;20058;-78
2022/02/15 02:11:00;;;;;;;7.85;3.80;;;;;;;8.71;100.00;96924.94;4973252;28;20050;-79
2022/02/15 02:13:27;;;;;;;7.20;3.88;;;;;;;8.80;100.00;96932.25;4973140;28;20081;-78
2022/02/15 02:15:54;;;;;;;8.88;4.00;;;;;;;8.70;100.00;96927.94;4973448;28;20078;-79
2022/02/15 02:18:20;;;;;;;10.13;3.90;;;;;;;8.72;100.00;96931.91;4973903;28;20070;-78
2022/02/15 02:20:48;;;;;;;12.02;4.38;;;;;;;8.70;100.00;96936.84;4973248;28;20451;-78
2022/02/15 02:23:20;;;;;;;6.80;3.85;;;;;;;8.76;100.00;96937.47;4980254;28;20082;-80
2022/02/15 02:25:50;;;;;;;9.88;4.13;;;;;;;8.72;100.00;96933.84;4995845;28;20049;-80
2022/02/15 02:28:20;;;;;;;9.23;4.03;;;;;;;8.77;100.00;96945.22;4995979;28;20035;-79
2022/02/15 02:30:47;;;;;;;7.88;4.40;;;;;;;8.74;100.00;96937.00;4978396;28;20098;-78
2022/02/15 02:33:13;;;;;;;9.70;4.30;;;;;;;8.64;100.00;96946.22;4972042;28;20059;-78
2022/02/15 02:35:40;;;;;;;12.65;4.88;;;;;;;8.61;100.00;96941.47;4973125;28;20062;-78
2022/02/15 02:38:07;;;;;;;9.90;3.83;;;;;;;8.63;100.00;96939.22;4972497;28;20455;-76
2022/02/15 02:40:34;;;;;;;11.27;4.18;;;;;;;8.69;100.00;96940.66;4971518;28;20055;-78
2022/02/15 02:43:01;;;;;;;9.60;4.63;;;;;;;8.72;100.00;96934.59;4974003;28;20051;-77
2022/02/15 02:45:28;;;;;;;10.10;4.65;;;;;;;8.70;100.00;96936.03;4972705;28;20101;-79
2022/02/15 02:47:56;;;;;;;8.45;3.95;;;;;;;8.63;100.00;96943.84;4974287;28;20062;-78
2022/02/15 02:50:29;;;;;;;13.02;4.10;;;;;;;8.59;100.00;96932.88;4973870;28;20050;-78
2022/02/15 02:52:55;;;;;;;9.13;3.88;;;;;;;8.43;100.00;96949.88;4976580;28;20054;-78
2022/02/15 02:55:22;;;;;;;8.65;3.80;;;;;;;8.59;100.00;96942.91;4976664;28;20411;-78
2022/02/15 02:57:50;;;;;;;8.85;4.10;;;;;;;8.62;100.00;96951.13;4976131;28;20464;-78
2022/02/15 03:00:20;;;;;;;9.70;3.95;;;;;;;8.49;100.00;96935.13;4976745;28;20090;-78
2022/02/15 03:02:46;;;;;;;12.95;4.32;;;;;;;8.48;100.00;96949.72;4977376;28;20047;-78
2022/02/15 03:05:16;;;;;;;9.57;4.30;;;;;;;8.52;100.00;96956.84;4977455;28;20055;-82
2022/02/15 03:07:42;;;;;;;11.45;4.25;;;;;;;8.34;100.00;96959.84;4981854;28;20054;-79
2022/02/15 03:10:09;;;;;;;9.27;3.72;;;;;;;8.45;100.00;96955.75;4979948;28;20106;-78
2022/02/15 03:12:37;;;;;;;9.77;4.60;;;;;;;8.42;100.00;96959.88;4978657;28;20058;-78
2022/02/15 03:15:04;;;;;;;11.05;4.45;;;;;;;8.30;100.00;81356.25;4975931;28;20061;-79
2022/02/15 03:17:33;;;;;;;11.35;4.43;;;;;;;-141.50;100.00;63355.56;4947516;28;20063;-79
2022/02/15 03:20:20;;;;;;;9.93;4.40;;;;;;;-141.50;100.00;63355.56;4939894;28;20043;-79
2022/02/15 03:22:46;;;;;;;11.25;4.38;;;;;;;-141.50;100.00;63355.56;4936470;29;20660;-79
2022/02/15 03:25:13;;;;;;;9.25;3.75;;;;;;;-141.50;100.00;63355.56;4934862;29;20055;-79
2022/02/15 03:27:42;;;;;;;11.93;4.30;;;;;;;-141.50;100.00;63355.56;4937876;29;20047;-79
2022/02/15 03:30:10;;;;;;;7.95;3.63;;;;;;;-141.50;100.00;63355.56;4936102;29;20118;-79
2022/02/15 03:32:38;;;;;;;8.55;4.07;;;;;;;-141.50;100.00;63355.56;4936104;29;20055;-78
2022/02/15 03:35:05;;;;;;;11.55;4.03;;;;;;;-141.50;100.00;63355.56;4936745;29;20067;-79
2022/02/15 03:37:35;;;;;;;8.52;3.88;;;;;;;-141.50;100.00;63355.56;4933879;29;20444;-79
2022/02/15 03:40:02;;;;;;;8.80;4.10;;;;;;;-141.50;100.00;63355.56;4933908;29;20048;-76
2022/02/15 03:45:14;;;;;;;14.27;4.20;;;;;;;-141.50;100.00;63355.56;4936632;29;20118;-78
2022/02/15 03:47:41;;;;;;;5.85;3.50;;;;;;;-141.50;100.00;63355.56;4935851;29;20125;-79
2022/02/15 03:50:08;;;;;;;9.95;3.40;;;;;;;-141.50;100.00;63355.56;4937189;29;20259;-78
2022/02/15 03:52:34;;;;;;;8.30;3.58;;;;;;;-141.50;100.00;63355.56;4934823;29;20587;-79
2022/02/15 03:55:01;;;;;;;8.70;3.42;;;;;;;-141.50;100.00;63355.56;4934674;29;20083;-78
2022/02/15 03:57:29;;;;;;;12.20;3.72;;;;;;;-141.50;100.00;63355.56;4937272;29;20075;-80
2022/02/15 03:59:56;;;;;;;11.43;3.55;;;;;;;-141.50;100.00;63355.56;4938902;29;20051;-79
2022/02/15 04:02:22;;;;;;;6.63;3.45;;;;;;;-141.50;100.00;63355.56;4940085;29;20638;-80
2022/02/15 04:04:49;;;;;;;8.50;3.63;;;;;;;-141.50;100.00;63355.56;4936707;29;20126;-77
2022/02/15 04:07:18;;;;;;;9.00;4.22;;;;;;;-141.50;100.00;63355.56;4936019;29;20089;-80
2022/02/15 04:09:45;;;;;;;9.57;3.65;;;;;;;-141.50;100.00;63355.56;4936975;29;20748;-79
2022/02/15 04:12:11;;;;;;;9.13;3.80;;;;;;;-141.50;100.00;63355.56;4941040;29;20134;-78
2022/02/15 04:14:38;;;;;;;10.60;4.07;;;;;;;-141.50;100.00;63355.56;4945365;29;20058;-80
2022/02/15 04:17:08;;;;;;;6.63;3.20;;;;;;;-141.50;100.00;63355.56;4945764;29;20071;-78
2022/02/15 04:19:34;;;;;;;9.20;3.80;;;;;;;-141.50;100.00;63355.56;4944684;29;20620;-81
2022/02/15 04:22:01;;;;;;;8.35;3.80;;;;;;;-141.50;100.00;63355.56;4946097;29;20055;-80
2022/02/15 04:24:27;;;;;;;9.35;4.18;;;;;;;-141.50;100.00;63355.56;4947827;29;20063;-80
2022/02/15 04:26:54;;;;;;;9.70;3.78;;;;;;;-141.50;100.00;63355.56;4948138;29;20055;-78
2022/02/15 04:29:21;;;;;;;11.85;4.20;;;;;;;-141.50;100.00;63355.56;4945510;29;20539;-80
2022/02/15 04:31:48;;;;;;;9.00;4.15;;;;;;;-141.50;100.00;63355.56;4943177;29;20075;-78
2022/02/15 04:34:14;;;;;;;13.57;4.88;;;;;;;-141.50;100.00;63355.56;4938113;29;20052;-79
2022/02/15 04:36:41;;;;;;;9.25;4.45;;;;;;;-141.50;100.00;63355.56;4936101;29;20063;-79
2022/02/15 04:39:12;;;;;;;8.50;4.00;;;;;;;-141.50;100.00;63355.56;4933867;29;20058;-77
2022/02/15 04:41:40;;;;;;;9.98;4.18;;;;;;;-141.50;100.00;63355.56;4944763;29;20465;-79
2022/02/15 04:44:07;;;;;;;11.70;4.30;;;;;;;-141.50;100.00;63355.56;4956453;28;20078;-79
2022/02/15 04:46:34;;;;;;;13.95;4.82;;;;;;;-141.50;100.00;63355.56;4958773;28;20053;-80
2022/02/15 04:49:00;;;;;;;10.57;4.35;;;;;;;-141.50;100.00;63355.56;4956655;28;20480;-78
2022/02/15 04:51:27;;;;;;;9.20;4.72;;;;;;;-141.50;100.00;63355.56;4951685;28;20079;-77
2022/02/15 04:53:53;;;;;;;10.20;4.40;;;;;;;-141.50;100.00;63355.56;4952869;28;20054;-78
2022/02/15 04:56:20;;;;;;;14.52;5.03;;;;;;;-141.50;100.00;63355.56;4951302;29;20086;-78
2022/02/15 04:58:47;;;;;;;13.15;4.60;;;;;;;-141.50;100.00;63355.56;4950856;28;20051;-80
2022/02/15 05:01:14;;;;;;;13.32;4.50;;;;;;;-141.50;100.00;63355.56;4950536;28;20049;-78
2022/02/15 05:03:41;;;;;;;9.55;4.50;;;;;;;-141.50;100.00;63355.56;4953978;28;20393;-78
2022/02/15 05:06:09;;;;;;;13.57;5.50;;;;;;;-141.50;100.00;63355.56;4953704;28;20595;-79
2022/02/15 05:08:36;;;;;;;9.77;4.28;;;;;;;-141.50;100.00;63355.56;4954965;28;20141;-80
2022/02/15 05:11:02;;;;;;;11.13;4.47;;;;;;;-141.50;100.00;63355.56;4953224;28;20401;-80
2022/02/15 05:13:29;;;;;;;8.30;4.15;;;;;;;-141.50;100.00;63355.56;4950992;28;20634;-78
2022/02/15 05:15:55;;;;;;;10.60;5.10;;;;;;;-141.50;100.00;63355.56;4950820;28;20067;-77
2022/02/15 05:18:22;;;;;;;11.80;4.32;;;;;;;-141.50;100.00;63355.56;4950187;29;20123;-78
2022/02/15 05:20:51;;;;;;;10.30;4.80;;;;;;;-141.50;100.00;63355.56;4952114;28;20076;-80
2022/02/15 05:23:17;;;;;;;9.80;4.63;;;;;;;-141.50;100.00;63355.56;4950340;29;20152;-79
2022/02/15 05:25:44;;;;;;;11.90;4.82;;;;;;;-141.50;100.00;63355.56;4951466;28;20545;-78
2022/02/15 05:28:11;;;;;;;11.95;4.85;;;;;;;-141.50;100.00;63355.56;4951604;29;20369;-79
2022/02/15 05:30:37;;;;;;;9.18;4.55;;;;;;;-141.50;100.00;63355.56;4953604;28;20555;-79
2022/02/15 05:33:04;;;;;;;9.32;4.90;;;;;;;-141.50;100.00;63355.56;4953570;28;20550;-79
2022/02/15 05:35:30;;;;;;;9.55;4.57;;;;;;;-141.50;100.00;63355.56;4953247;28;20471;-78
2022/02/15 05:37:57;;;;;;;14.85;4.22;;;;;;;-141.50;100.00;63355.56;4953756;28;20389;-81
2022/02/15 05:40:23;;;;;;;9.15;4.47;;;;;;;-141.50;100.00;63355.56;4955524;28;20055;-79
2022/02/15 05:42:50;;;;;;;12.52;4.78;;;;;;;-141.50;100.00;63355.56;4956107;28;20154;-79
2022/02/15 05:45:16;;;;;;;9.07;4.05;;;;;;;-141.50;100.00;63355.56;4954796;28;20092;-79
2022/02/15 05:47:43;;;;;;;8.25;3.78;;;;;;;-141.50;100.00;63355.56;4954296;29;20050;-80
2022/02/15 05:52:55;;;;;;;10.23;3.42;;;;;;;-141.50;100.00;63355.56;4973519;29;20043;-80
2022/02/15 05:55:21;;;;;;;10.13;4.63;;;;;;;-141.50;100.00;63355.56;4966341;28;20102;-79
2022/02/15 05:57:48;;;;;;;10.13;4.15;;;;;;;-141.50;100.00;63355.56;4950846;29;20452;-79
2022/02/15 06:00:18;;;;;;;10.32;4.30;;;;;;;-141.50;100.00;63355.56;4949071;29;20055;-78
2022/02/15 06:02:46;;;;;;;6.57;3.83;;;;;;;-141.50;100.00;63355.56;4950491;28;20054;-77
2022/02/15 06:05:13;;;;;;;11.55;4.60;;;;;;;-141.50;100.00;63355.56;4950563;28;20456;-77
2022/02/15 06:07:40;;;;;;;18.20;4.63;;;;;;;-141.50;100.00;63355.56;4949884;28;20426;-77
2022/02/15 06:10:07;;;;;;;9.50;4.32;;;;;;;-141.50;100.00;63355.56;4948653;29;20051;-78
2022/02/15 06:12:36;;;;;;;14.88;4.82;;;;;;;-141.50;100.00;63355.56;4949771;28;20047;-77
2022/02/15 06:15:04;;;;;;;12.48;4.78;;;;;;;-141.50;100.00;63355.56;4949690;28;20047;-78
2022/02/15 06:17:31;;;;;;;14.20;4.95;;;;;;;-141.50;100.00;63355.56;4949629;28;20092;-79
2022/02/15 06:19:57;;;;;;;11.68;4.65;;;;;;;-141.50;100.00;63355.56;4948848;28;20051;-78
2022/02/15 06:22:24;;;;;;;9.32;4.72;;;;;;;-141.50;100.00;63355.56;4948928;28;20094;-79
2022/02/15 06:24:50;;;;;;;9.63;4.40;;;;;;;-141.50;100.00;63355.56;4950816;28;20055;-78
2022/02/15 06:27:17;;;;;;;10.82;4.90;;;;;;;-141.50;100.00;63355.56;4952323;28;20137;-78
2022/02/15 06:29:43;;;;;;;12.15;4.97;;;;;;;-141.50;100.00;63355.56;4952970;28;20500;-79
2022/02/15 06:32:10;;;;;;;11.38;4.72;;;;;;;-141.50;100.00;63355.56;4941468;28;20417;-78
2022/02/15 06:34:37;;;;;;;9.13;4.93;;;;;;;-141.50;100.00;63355.56;4938646;29;20066;-79
2022/02/15 06:37:04;;;;;;;12.15;5.25;;;;;;;-141.50;100.00;63355.56;4953588;28;20421;-78
2022/02/15 06:39:30;;;;;;;11.00;4.82;;;;;;;-141.50;100.00;63355.56;4952452;28;20055;-78
2022/02/15 06:41:57;;;;;;;13.10;5.18;;;;;;;-141.50;100.00;63355.56;4954015;28;20083;-77
2022/02/15 06:44:23;;;;;;;12.75;5.20;;;;;;;-141.50;100.00;63355.56;4953189;29;20122;-78
2022/02/15 06:46:50;;;;;;;9.77;4.72;;;;;;;-141.50;100.00;63355.56;4954024;28;20479;-77
2022/02/15 06:49:16;;;;;;;11.05;5.28;;;;;;;-141.50;100.00;63355.56;4952908;29;20118;-77
2022/02/15 06:51:43;;;;;;;9.40;5.00;;;;;;;-141.50;100.00;63355.56;4951502;28;20106;-78
2022/02/15 06:54:10;;;;;;;11.43;5.30;;;;;;;-141.50;100.00;63355.56;4952804;28;20093;-77
2022/02/15 06:56:38;;;;;;;10.40;5.20;;;;;;;-141.50;100.00;63355.56;4953224;28;20051;-77
2022/02/15 06:59:04;;;;;;;10.55;4.63;;;;;;;-141.50;100.00;63355.56;4952625;28;20496;-79
2022/02/15 07:01:31;;;;;;;12.02;5.10;;;;;;;-141.50;100.00;63355.56;4954361;29;20082;-78
2022/02/15 07:03:58;;;;;;;13.05;5.32;;;;;;;-141.50;100.00;63355.56;4955189;28;20058;-79
2022/02/15 07:06:24;;;;;;;11.40;4.97;;;;;;;-141.50;100.00;63355.56;4954111;28;20135;-79
2022/02/15 07:08:57;;;;;;;11.73;4.70;;;;;;;-141.50;100.00;63355.56;4952228;29;20471;-78
2022/02/15 07:11:23;;;;;;;12.63;4.90;;;;;;;-141.50;100.00;63355.56;4949838;29;20074;-78
2022/02/15 07:13:50;;;;;;;9.75;5.07;;;;;;;-141.50;100.00;63355.56;4950464;29;20047;-78
2022/02/15 07:16:17;;;;;;;11.63;5.50;;;;;;;-141.50;100.00;63355.56;4952900;29;20063;-78
2022/02/15 07:18:44;;;;;;;10.77;5.20;;;;;;;-141.50;100.00;63355.56;4950921;29;20051;-79
2022/02/15 07:21:10;;;;;;;12.77;5.50;;;;;;;-141.50;100.00;63355.56;4951676;28;20055;-79
2022/02/15 07:23:37;;;;;;;12.15;5.40;;;;;;;-141.50;100.00;63355.56;4952925;29;20110;-76
2022/02/15 07:26:03;;;;;;;12.70;5.13;;;;;;;-141.50;100.00;63355.56;4954249;28;20425;-77
2022/02/15 07:28:30;;;;;;;13.48;5.13;;;;;;;-141.50;100.00;63355.56;4954230;28;20498;-78
2022/02/15 07:30:56;;;;;;;13.80;5.30;;;;;;;-141.50;100.00;63355.56;4954155;28;20464;-78
2022/02/15 07:33:23;;;;;;;14.13;5.68;;;;;;;-141.50;100.00;63355.56;4952517;28;20106;-78
2022/02/15 07:35:49;;;;;;;13.70;5.88;;;;;;;-141.50;100.00;63355.56;4951785;28;20119;-77
2022/02/15 07:38:17;;;;;;;11.77;5.63;;;;;;;-141.50;100.00;63355.56;4953346;28;20150;-78
2022/02/15 07:40:44;;;;;;;12.30;5.15;;;;;;;-141.50;100.00;63355.56;4954722;28;20472;-77
2022/02/15 07:43:10;;;;;;;14.40;5.93;;;;;;;-141.50;100.00;63355.56;4955447;28;20047;-78
2022/02/15 07:45:39;;;;;;;14.02;5.45;;;;;;;-141.50;100.00;63355.56;4954248;28;20051;-76
2022/02/15 07:48:05;;;;;;;14.85;5.95;;;;;;;-141.50;100.00;63355.56;4951759;28;20078;-80
2022/02/15 07:50:32;;;;;;;9.93;5.28;;;;;;;-141.50;100.00;63355.56;4952667;28;20090;-76
2022/02/15 07:52:58;;;;;;;13.60;5.78;;;;;;;-141.50;100.00;63355.56;4953487;28;20059;-77
2022/02/15 07:55:25;;;;;;;13.50;6.10;;;;;;;-141.50;100.00;63355.56;4952205;28;20090;-77
2022/02/15 07:57:51;;;;;;;13.55;5.82;;;;;;;-141.50;100.00;63355.56;4953019;28;20051;-78
2022/02/15 08:00:20;;;;;;;11.07;5.45;;;;;;;-141.50;100.00;63355.56;4954451;28;20054;-74
2022/02/15 08:02:51;;;;;;;15.82;6.10;;;;;;;-141.50;100.00;63355.56;4955120;28;20051;-78
2022/02/15 08:05:19;;;;;;;11.48;5.57;;;;;;;-141.50;100.00;63355.56;4953044;29;20492;-79
2022/02/15 08:07:54;;;;;;;16.45;6.28;;;;;;;-141.50;100.00;63355.56;4952701;28;20078;-77
2022/02/15 08:10:21;;;;;;;16.10;6.80;;;;;;;-141.50;100.00;63355.56;4951112;29;20409;-78
2022/02/15 08:12:55;;;;;;;15.38;6.53;;;;;;;-141.50;100.00;63355.56;4956069;28;20051;-77
2022/02/15 08:15:23;;;;;;;16.67;6.60;;;;;;;-141.50;100.00;63355.56;4957223;28;20124;-79
2022/02/15 08:17:50;;;;;;;15.93;7.18;;;;;;;-141.50;100.00;63355.56;4956091;28;20051;-79
2022/02/15 08:20:17;;;;;;;11.95;5.97;;;;;;;-141.50;100.00;63355.56;4954632;28;20195;-77
2022/02/15 08:22:43;;;;;;;13.18;6.18;;;;;;;-141.50;100.00;63355.56;4951556;28;20207;-77
2022/02/15 08:25:10;;;;;;;18.60;6.95;;;;;;;-141.50;100.00;63355.56;4954044;28;20059;-78
2022/02/15 08:27:36;;;;;;;13.23;5.95;;;;;;;-141.50;100.00;63355.56;4952887;28;20066;-79
2022/02/15 08:30:04;;;;;;;13.43;6.03;;;;;;;-141.50;100.00;63355.56;4951325;28;20063;-77
2022/02/15 08:32:31;;;;;;;11.63;6.60;;;;;;;-141.50;100.00;63355.56;4952747;28;20047;-78
2022/02/15 08:34:58;;;;;;;10.25;5.75;;;;;;;-141.50;100.00;63355.56;4954549;28;20459;-77
2022/02/15 08:37:25;;;;;;;14.85;6.28;;;;;;;-141.50;100.00;63355.56;4950722;28;20405;-77
2022/02/15 08:39:51;;;;;;;13.82;6.00;;;;;;;-141.50;100.00;63355.56;4952488;28;20051;-77
2022/02/15 08:42:18;;;;;;;12.85;6.40;;;;;;;-141.50;100.00;63355.56;4953132;28;20047;-76
2022/02/15 08:44:45;;;;;;;14.65;6.00;;;;;;;-141.50;100.00;63355.56;4953239;28;20087;-77
2022/02/15 08:47:12;;;;;;;12.32;6.03;;;;;;;-141.50;100.00;63355.56;4951629;28;20083;-78
2022/02/15 08:49:38;;;;;;;11.80;5.75;;;;;;;-141.50;100.00;63355.56;4954690;28;20055;-79
2022/02/15 08:52:06;;;;;;;15.32;6.00;;;;;;;-141.50;100.00;63355.56;4955505;28;20040;-79
2022/02/15 08:54:32;;;;;;;11.75;6.22;;;;;;;-141.50;100.00;63355.56;4952383;28;20055;-78
2022/02/15 08:56:59;;;;;;;10.93;5.78;;;;;;;-141.50;100.00;63355.56;4951764;29;20134;-78
2022/02/15 08:59:26;;;;;;;13.73;5.80;;;;;;;-141.50;100.00;63355.56;4951619;29;20083;-79
2022/02/15 09:01:53;;;;;;;12.05;5.45;;;;;;;-141.50;100.00;63355.56;4952382;29;20512;-79
2022/02/15 09:04:19;;;;;;;10.57;5.50;;;;;;;-141.50;100.00;63355.56;4953043;28;20106;-78
2022/02/15 09:06:46;;;;;;;10.30;4.93;;;;;;;-141.50;100.00;63355.56;4950346;29;20047;-78
2022/02/15 09:09:15;;;;;;;9.35;5.50;;;;;;;-141.50;100.00;63355.56;4952217;28;20611;-78
2022/02/15 09:11:42;;;;;;;10.95;4.80;;;;;;;-141.50;100.00;63355.56;4955261;29;20491;-80
2022/02/15 09:14:09;;;;;;;11.23;5.18;;;;;;;-141.50;100.00;63355.56;4954517;29;20055;-79
2022/02/15 09:16:36;;;;;;;11.93;4.90;;;;;;;-141.50;100.00;63355.56;4956890;28;20102;-79
2022/02/15 09:19:03;;;;;;;13.27;5.05;;;;;;;-141.50;100.00;63355.56;4972837;28;20031;-81
2022/02/15 09:21:30;;;;;;;10.82;4.93;;;;;;;-141.50;100.00;63355.56;4973833;28;20047;-81
2022/02/15 09:23:57;;;;;;;11.75;5.55;;;;;;;-141.50;100.00;63355.56;4962637;28;20051;-79
2022/02/15 09:26:23;;;;;;;8.95;4.40;;;;;;;-141.50;100.00;63355.56;4955870;29;20055;-79
2022/02/15 09:28:50;;;;;;;10.07;4.95;;;;;;;-141.50;100.00;63355.56;4951269;28;20063;-78
2022/02/15 09:31:16;;;;;;;11.82;4.90;;;;;;;-141.50;100.00;63355.56;4952994;28;20082;-78
2022/02/15 09:33:44;;;;;;;13.77;5.03;;;;;;;-141.50;100.00;63355.56;4952386;28;20449;-78
2022/02/15 09:36:21;;;;;;;8.52;4.30;;;;;;;-141.50;100.00;63355.56;4953298;28;20142;-79
2022/02/15 09:38:48;;;;;;;13.50;4.80;;;;;;;-141.50;100.00;63355.56;4955064;28;20526;-78
2022/02/15 09:41:16;;;;;;;9.43;4.65;;;;;;;-141.50;100.00;63355.56;4952457;28;20306;-79
2022/02/15 09:43:42;;;;;;;10.45;4.90;;;;;;;-141.50;100.00;63355.56;4950418;29;20055;-79
2022/02/15 09:46:13;;;;;;;11.68;4.60;;;;;;;-141.50;100.00;63355.56;4954452;28;20043;-78
2022/02/15 09:48:41;;;;;;;9.20;5.07;;;;;;;-141.50;100.00;63355.56;4951558;28;20202;-79
2022/02/15 09:51:10;;;;;;;9.98;4.63;;;;;;;-141.50;100.00;63355.56;4951779;28;20051;-77
2022/02/15 09:53:36;;;;;;;10.57;4.68;;;;;;;-141.50;100.00;63355.56;4951029;29;20059;-78
2022/02/15 09:56:06;;;;;;;11.23;4.95;;;;;;;-141.50;100.00;63355.56;4952631;28;20102;-80
2022/02/15 09:58:34;;;;;;;11.77;4.30;;;;;;;-141.50;100.00;63355.56;4952024;28;20507;-79
2022/02/15 10:01:03;;;;;;;8.77;4.70;;;;;;;-141.50;100.00;63355.56;4952598;28;20055;-80
2022/02/15 10:03:32;;;;;;;13.00;4.43;;;;;;;-141.50;100.00;63355.56;4954294;28;20074;-81
2022/02/15 10:05:58;;;;;;;11.65;4.18;;;;;;;-141.50;100.00;63355.56;4953644;28;20114;-79
2022/02/15 10:08:27;;;;;;;10.70;4.10;;;;;;;-141.50;100.00;63355.56;4952640;28;20047;-78
2022/02/15 10:10:54;;;;;;;13.77;4.55;;;;;;;-141.50;100.00;63355.56;4953570;28;20051;-78
2022/02/15 10:13:21;;;;;;;8.63;3.90;;;;;;;-141.50;100.00;63355.56;4954855;28;20047;-80
2022/02/15 10:15:51;;;;;;;8.52;3.80;;;;;;;-141.50;100.00;63355.56;4953742;28;20051;-77
2022/02/15 10:18:22;;;;;;;14.35;4.15;;;;;;;-141.50;100.00;63355.56;4951879;28;20404;-78
2022/02/15 10:20:56;;;;;;;8.35;3.67;;;;;;;-141.50;100.00;63355.56;4952206;28;20062;-78
2022/02/15 10:23:30;;;;;;;7.88;3.70;;;;;;;-141.50;100.00;63355.56;4953928;28;20309;-79
2022/02/15 10:25:57;;;;;;;11.13;3.53;;;;;;;-141.50;100.00;63355.56;4960447;28;20052;-80
2022/02/15 10:28:29;;;;;;;9.10;3.10;;;;;;;-141.50;100.00;63355.56;4953477;28;20094;-79
2022/02/15 10:30:58;;;;;;;7.82;3.30;;;;;;;-141.50;100.00;63355.56;4952899;28;20082;-81
2022/02/15 10:33:29;;;;;;;8.48;3.35;;;;;;;-141.50;100.00;63355.56;4951940;28;20055;-78
2022/02/15 10:36:07;;;;;;;8.07;3.03;;;;;;;-141.50;100.00;63355.56;4950656;28;20114;-79
2022/02/15 10:38:35;;;;;;;9.50;3.10;;;;;;;-141.50;100.00;63355.56;4953995;28;20055;-79
2022/02/15 10:41:04;;;;;;;8.20;2.80;;;;;;;-141.50;100.00;63355.56;4954288;28;20350;-80
2022/02/15 10:43:56;;;;;;;6.53;3.10;;;;;;;-141.50;100.00;63355.56;4953692;28;20146;-79
2022/02/15 10:46:24;;;;;;;7.78;3.00;;;;;;;-141.50;100.00;63355.56;4953518;28;20047;-78
2022/02/15 10:48:53;;;;;;;7.20;2.95;;;;;;;-141.50;100.00;63355.56;4951375;28;20047;-79
2022/02/15 10:51:22;;;;;;;11.38;3.22;;;;;;;-141.50;100.00;63355.56;4950566;28;20043;-79
2022/02/15 10:53:58;;;;;;;7.25;2.80;;;;;;;-141.50;100.00;63355.56;4951900;28;20353;-78
2022/02/15 10:56:32;;;;;;;8.20;2.78;;;;;;;-141.50;100.00;63355.56;4954313;28;20058;-79
2022/02/15 10:59:03;;;;;;;7.72;2.42;;;;;;;-141.50;100.00;63355.56;4951508;28;20385;-79
2022/02/15 11:01:32;;;;;;;7.43;2.92;;;;;;;-141.50;100.00;63355.56;4946246;28;20703;-79
2022/02/15 11:03:59;;;;;;;10.15;2.60;;;;;;;-141.50;100.00;63355.56;4953050;29;20054;-80
2022/02/15 11:06:27;;;;;;;5.32;3.00;;;;;;;-141.50;100.00;63355.56;4956061;28;20051;-80
2022/02/15 11:08:58;;;;;;;10.82;3.45;;;;;;;-141.50;100.00;63355.56;4956316;28;20059;-79
2022/02/15 11:11:34;;;;;;;5.45;2.35;;;;;;;-141.50;100.00;63355.56;4955697;28;20571;-78
2022/02/15 11:14:01;;;;;;;6.45;2.83;;;;;;;-141.50;100.00;63355.56;4958375;28;20071;-80
2022/02/15 11:16:32;;;;;;;8.48;3.03;;;;;;;-141.50;100.00;63355.56;4960020;29;20106;-80
2022/02/15 11:19:08;;;;;;;7.20;2.90;;;;;;;-141.50;100.00;63355.56;4959396;28;20488;-79